sensor_id;sensor_type;location;lat;lon;timestamp;P1;durP1;ratioP1;P2;durP2;ratioP2
12869;SDS011;6503;48.572;13.460;2023-12-28T00:00:17;26.53;;;8.83;;
12869;SDS011;6503;48.572;13.460;2023-12-28T00:02:46;23.43;;;8.90;;
12869;SDS011;6503;48.572;13.460;2023-12-28T00:05:15;73.10;;;9.90;;
12869;SDS011;6503;48.572;13.460;2023-12-28T00:10:10;261.80;;;16.90;;
12869;SDS011;6503;48.572;13.460;2023-12-28T00:12:37;46.50;;;8.77;;
12869;SDS011;6503;48.572;13.460;2023-12-28T00:15:05;69.63;;;9.87;;
12869;SDS011;6503;48.572;13.460;2023-12-28T00:17:32;33.17;;;8.97;;
12869;SDS011;6503;48.572;13.460;2023-12-28T00:19:59;99.37;;;12.13;;
12869;SDS011;6503;48.572;13.460;2023-12-28T00:22:29;159.77;;;13.37;;
12869;SDS011;6503;48.572;13.460;2023-12-28T00:24:55;85.33;;;10.17;;
12869;SDS011;6503;48.572;13.460;2023-12-28T00:27:22;272.47;;;17.10;;
12869;SDS011;6503;48.572;13.460;2023-12-28T00:29:51;48.47;;;9.27;;
12869;SDS011;6503;48.572;13.460;2023-12-28T00:32:19;40.03;;;8.80;;
12869;SDS011;6503;48.572;13.460;2023-12-28T00:34:46;49.40;;;8.50;;
12869;SDS011;6503;48.572;13.460;2023-12-28T00:37:13;49.20;;;9.07;;
12869;SDS011;6503;48.572;13.460;2023-12-28T00:39:44;35.73;;;7.60;;
12869;SDS011;6503;48.572;13.460;2023-12-28T00:42:12;43.50;;;7.93;;
12869;SDS011;6503;48.572;13.460;2023-12-28T00:44:39;11.00;;;6.30;;
12869;SDS011;6503;48.572;13.460;2023-12-28T00:47:07;12.30;;;5.67;;
12869;SDS011;6503;48.572;13.460;2023-12-28T00:49:34;15.80;;;6.77;;
12869;SDS011;6503;48.572;13.460;2023-12-28T00:52:02;64.43;;;9.77;;
12869;SDS011;6503;48.572;13.460;2023-12-28T00:54:29;61.37;;;8.97;;
12869;SDS011;6503;48.572;13.460;2023-12-28T00:56:58;124.47;;;10.60;;
12869;SDS011;6503;48.572;13.460;2023-12-28T01:01:53;45.97;;;7.53;;
12869;SDS011;6503;48.572;13.460;2023-12-28T01:04:21;18.13;;;6.03;;
12869;SDS011;6503;48.572;13.460;2023-12-28T01:06:49;12.13;;;6.10;;
12869;SDS011;6503;48.572;13.460;2023-12-28T01:09:16;12.27;;;6.43;;
12869;SDS011;6503;48.572;13.460;2023-12-28T01:11:43;17.60;;;6.43;;
12869;SDS011;6503;48.572;13.460;2023-12-28T01:14:12;35.90;;;6.60;;
12869;SDS011;6503;48.572;13.460;2023-12-28T01:16:40;48.85;;;7.22;;
12869;SDS011;6503;48.572;13.460;2023-12-28T01:21:36;38.03;;;6.47;;
12869;SDS011;6503;48.572;13.460;2023-12-28T01:24:04;101.93;;;9.07;;
12869;SDS011;6503;48.572;13.460;2023-12-28T01:26:31;38.97;;;7.13;;
12869;SDS011;6503;48.572;13.460;2023-12-28T01:29:00;28.27;;;6.97;;
12869;SDS011;6503;48.572;13.460;2023-12-28T01:31:30;33.03;;;7.45;;
12869;SDS011;6503;48.572;13.460;2023-12-28T01:33:57;30.33;;;7.07;;
12869;SDS011;6503;48.572;13.460;2023-12-28T01:36:25;38.10;;;7.50;;
12869;SDS011;6503;48.572;13.460;2023-12-28T01:38:54;15.57;;;5.97;;
12869;SDS011;6503;48.572;13.460;2023-12-28T01:41:21;26.10;;;7.20;;
12869;SDS011;6503;48.572;13.460;2023-12-28T01:43:49;31.47;;;8.20;;
12869;SDS011;6503;48.572;13.460;2023-12-28T01:46:17;30.93;;;5.90;;
12869;SDS011;6503;48.572;13.460;2023-12-28T01:48:46;21.53;;;6.23;;
12869;SDS011;6503;48.572;13.460;2023-12-28T01:51:15;24.87;;;6.33;;
12869;SDS011;6503;48.572;13.460;2023-12-28T01:53:43;40.03;;;6.57;;
12869;SDS011;6503;48.572;13.460;2023-12-28T01:56:10;40.40;;;6.80;;
12869;SDS011;6503;48.572;13.460;2023-12-28T01:58:38;36.13;;;7.20;;
12869;SDS011;6503;48.572;13.460;2023-12-28T02:01:09;59.43;;;7.17;;
12869;SDS011;6503;48.572;13.460;2023-12-28T02:03:36;22.23;;;6.70;;
12869;SDS011;6503;48.572;13.460;2023-12-28T02:06:06;54.83;;;6.90;;
12869;SDS011;6503;48.572;13.460;2023-12-28T02:08:33;53.63;;;6.53;;
12869;SDS011;6503;48.572;13.460;2023-12-28T02:11:01;69.57;;;6.93;;
12869;SDS011;6503;48.572;13.460;2023-12-28T02:13:28;60.00;;;7.43;;
12869;SDS011;6503;48.572;13.460;2023-12-28T02:15:57;58.67;;;7.13;;
12869;SDS011;6503;48.572;13.460;2023-12-28T02:18:26;23.70;;;6.23;;
12869;SDS011;6503;48.572;13.460;2023-12-28T02:20:57;73.83;;;7.30;;
12869;SDS011;6503;48.572;13.460;2023-12-28T02:23:26;23.47;;;5.53;;
12869;SDS011;6503;48.572;13.460;2023-12-28T02:25:55;21.13;;;4.60;;
12869;SDS011;6503;48.572;13.460;2023-12-28T02:28:22;16.48;;;5.47;;
12869;SDS011;6503;48.572;13.460;2023-12-28T02:30:50;97.97;;;9.57;;
12869;SDS011;6503;48.572;13.460;2023-12-28T02:33:19;43.93;;;7.63;;
12869;SDS011;6503;48.572;13.460;2023-12-28T02:35:52;51.90;;;7.33;;
12869;SDS011;6503;48.572;13.460;2023-12-28T02:38:22;41.73;;;6.57;;
12869;SDS011;6503;48.572;13.460;2023-12-28T02:40:50;40.42;;;7.10;;
12869;SDS011;6503;48.572;13.460;2023-12-28T02:43:19;34.63;;;5.93;;
12869;SDS011;6503;48.572;13.460;2023-12-28T02:45:47;49.13;;;7.45;;
12869;SDS011;6503;48.572;13.460;2023-12-28T02:48:14;99.53;;;8.93;;
12869;SDS011;6503;48.572;13.460;2023-12-28T02:50:42;48.77;;;7.30;;
12869;SDS011;6503;48.572;13.460;2023-12-28T02:53:09;63.13;;;8.13;;
12869;SDS011;6503;48.572;13.460;2023-12-28T02:55:36;47.37;;;6.90;;
12869;SDS011;6503;48.572;13.460;2023-12-28T02:58:04;89.60;;;7.67;;
12869;SDS011;6503;48.572;13.460;2023-12-28T03:00:33;51.37;;;6.83;;
12869;SDS011;6503;48.572;13.460;2023-12-28T03:03:00;65.80;;;8.05;;
12869;SDS011;6503;48.572;13.460;2023-12-28T03:05:28;91.37;;;8.80;;
12869;SDS011;6503;48.572;13.460;2023-12-28T03:07:55;67.13;;;8.63;;
12869;SDS011;6503;48.572;13.460;2023-12-28T03:10:23;89.90;;;8.83;;
12869;SDS011;6503;48.572;13.460;2023-12-28T03:12:51;64.40;;;8.43;;
12869;SDS011;6503;48.572;13.460;2023-12-28T03:15:18;108.80;;;8.87;;
12869;SDS011;6503;48.572;13.460;2023-12-28T03:17:49;139.27;;;9.07;;
12869;SDS011;6503;48.572;13.460;2023-12-28T03:20:16;75.73;;;7.17;;
12869;SDS011;6503;48.572;13.460;2023-12-28T03:22:44;102.60;;;8.70;;
12869;SDS011;6503;48.572;13.460;2023-12-28T03:25:11;105.40;;;8.87;;
12869;SDS011;6503;48.572;13.460;2023-12-28T03:27:39;44.77;;;7.67;;
12869;SDS011;6503;48.572;13.460;2023-12-28T03:30:06;161.57;;;11.83;;
12869;SDS011;6503;48.572;13.460;2023-12-28T03:32:34;123.57;;;10.07;;
12869;SDS011;6503;48.572;13.460;2023-12-28T03:35:03;106.57;;;8.63;;
12869;SDS011;6503;48.572;13.460;2023-12-28T03:37:32;95.33;;;8.33;;
12869;SDS011;6503;48.572;13.460;2023-12-28T03:39:59;37.17;;;6.83;;
12869;SDS011;6503;48.572;13.460;2023-12-28T03:42:26;52.20;;;8.80;;
12869;SDS011;6503;48.572;13.460;2023-12-28T03:44:54;93.77;;;9.37;;
12869;SDS011;6503;48.572;13.460;2023-12-28T03:47:21;83.23;;;10.13;;
12869;SDS011;6503;48.572;13.460;2023-12-28T03:49:49;112.80;;;10.20;;
12869;SDS011;6503;48.572;13.460;2023-12-28T03:52:18;95.33;;;9.40;;
12869;SDS011;6503;48.572;13.460;2023-12-28T03:54:45;161.43;;;10.65;;
12869;SDS011;6503;48.572;13.460;2023-12-28T03:57:12;50.60;;;7.70;;
12869;SDS011;6503;48.572;13.460;2023-12-28T03:59:39;137.13;;;9.50;;
12869;SDS011;6503;48.572;13.460;2023-12-28T04:02:09;106.73;;;8.37;;
12869;SDS011;6503;48.572;13.460;2023-12-28T04:04:36;85.37;;;8.43;;
12869;SDS011;6503;48.572;13.460;2023-12-28T04:07:04;78.10;;;9.37;;
12869;SDS011;6503;48.572;13.460;2023-12-28T04:09:34;34.00;;;6.95;;
12869;SDS011;6503;48.572;13.460;2023-12-28T04:14:28;33.87;;;6.63;;
12869;SDS011;6503;48.572;13.460;2023-12-28T04:16:55;93.30;;;8.13;;
12869;SDS011;6503;48.572;13.460;2023-12-28T04:19:23;86.77;;;10.47;;
12869;SDS011;6503;48.572;13.460;2023-12-28T04:21:50;64.93;;;6.80;;
12869;SDS011;6503;48.572;13.460;2023-12-28T04:24:17;83.87;;;9.63;;
12869;SDS011;6503;48.572;13.460;2023-12-28T04:26:46;115.30;;;10.73;;
12869;SDS011;6503;48.572;13.460;2023-12-28T04:29:13;75.18;;;10.27;;
12869;SDS011;6503;48.572;13.460;2023-12-28T04:31:41;27.77;;;7.83;;
12869;SDS011;6503;48.572;13.460;2023-12-28T04:34:08;186.63;;;11.77;;
12869;SDS011;6503;48.572;13.460;2023-12-28T04:36:39;81.27;;;9.13;;
12869;SDS011;6503;48.572;13.460;2023-12-28T04:39:07;64.33;;;8.57;;
12869;SDS011;6503;48.572;13.460;2023-12-28T04:41:37;27.67;;;7.00;;
12869;SDS011;6503;48.572;13.460;2023-12-28T04:44:07;61.97;;;8.53;;
12869;SDS011;6503;48.572;13.460;2023-12-28T04:46:37;76.17;;;8.67;;
12869;SDS011;6503;48.572;13.460;2023-12-28T04:49:07;10.47;;;6.50;;
12869;SDS011;6503;48.572;13.460;2023-12-28T04:51:34;31.90;;;6.67;;
12869;SDS011;6503;48.572;13.460;2023-12-28T04:54:02;35.87;;;6.23;;
12869;SDS011;6503;48.572;13.460;2023-12-28T04:56:29;70.97;;;9.10;;
12869;SDS011;6503;48.572;13.460;2023-12-28T04:58:56;57.30;;;6.83;;
12869;SDS011;6503;48.572;13.460;2023-12-28T05:01:25;49.07;;;7.03;;
12869;SDS011;6503;48.572;13.460;2023-12-28T05:03:56;174.20;;;11.97;;
12869;SDS011;6503;48.572;13.460;2023-12-28T05:06:23;33.87;;;6.90;;
12869;SDS011;6503;48.572;13.460;2023-12-28T05:08:50;63.27;;;7.37;;
12869;SDS011;6503;48.572;13.460;2023-12-28T05:11:18;54.37;;;7.53;;
12869;SDS011;6503;48.572;13.460;2023-12-28T05:13:45;44.07;;;7.37;;
12869;SDS011;6503;48.572;13.460;2023-12-28T05:16:14;41.73;;;7.03;;
12869;SDS011;6503;48.572;13.460;2023-12-28T05:18:42;37.40;;;6.72;;
12869;SDS011;6503;48.572;13.460;2023-12-28T05:21:10;133.52;;;9.10;;
12869;SDS011;6503;48.572;13.460;2023-12-28T05:23:38;54.30;;;9.05;;
12869;SDS011;6503;48.572;13.460;2023-12-28T05:26:06;14.73;;;6.97;;
12869;SDS011;6503;48.572;13.460;2023-12-28T05:28:33;108.73;;;8.70;;
12869;SDS011;6503;48.572;13.460;2023-12-28T05:31:00;36.47;;;7.90;;
12869;SDS011;6503;48.572;13.460;2023-12-28T05:33:28;49.37;;;7.00;;
12869;SDS011;6503;48.572;13.460;2023-12-28T05:35:56;35.17;;;6.60;;
12869;SDS011;6503;48.572;13.460;2023-12-28T05:38:24;20.52;;;6.03;;
12869;SDS011;6503;48.572;13.460;2023-12-28T05:40:51;80.73;;;8.60;;
12869;SDS011;6503;48.572;13.460;2023-12-28T05:43:18;60.33;;;8.30;;
12869;SDS011;6503;48.572;13.460;2023-12-28T05:45:45;32.17;;;6.90;;
12869;SDS011;6503;48.572;13.460;2023-12-28T05:48:13;13.30;;;6.10;;
12869;SDS011;6503;48.572;13.460;2023-12-28T05:50:40;26.13;;;7.00;;
12869;SDS011;6503;48.572;13.460;2023-12-28T05:53:09;13.93;;;6.00;;
12869;SDS011;6503;48.572;13.460;2023-12-28T05:55:39;14.47;;;5.10;;
12869;SDS011;6503;48.572;13.460;2023-12-28T05:58:06;10.07;;;5.10;;
12869;SDS011;6503;48.572;13.460;2023-12-28T06:00:33;24.80;;;5.30;;
12869;SDS011;6503;48.572;13.460;2023-12-28T06:03:02;19.33;;;5.57;;
12869;SDS011;6503;48.572;13.460;2023-12-28T06:05:29;19.73;;;5.40;;
12869;SDS011;6503;48.572;13.460;2023-12-28T06:07:57;14.17;;;5.63;;
12869;SDS011;6503;48.572;13.460;2023-12-28T06:10:29;7.07;;;5.30;;
12869;SDS011;6503;48.572;13.460;2023-12-28T06:12:56;24.77;;;6.40;;
12869;SDS011;6503;48.572;13.460;2023-12-28T06:15:23;9.87;;;5.63;;
12869;SDS011;6503;48.572;13.460;2023-12-28T06:17:51;26.47;;;6.53;;
12869;SDS011;6503;48.572;13.460;2023-12-28T06:20:18;17.80;;;5.50;;
12869;SDS011;6503;48.572;13.460;2023-12-28T06:22:46;27.27;;;6.30;;
12869;SDS011;6503;48.572;13.460;2023-12-28T06:25:14;28.90;;;5.93;;
12869;SDS011;6503;48.572;13.460;2023-12-28T06:27:42;49.57;;;6.50;;
12869;SDS011;6503;48.572;13.460;2023-12-28T06:30:10;7.20;;;5.60;;
12869;SDS011;6503;48.572;13.460;2023-12-28T06:32:38;14.63;;;5.83;;
12869;SDS011;6503;48.572;13.460;2023-12-28T06:35:08;8.00;;;6.20;;
12869;SDS011;6503;48.572;13.460;2023-12-28T06:37:36;12.70;;;5.27;;
12869;SDS011;6503;48.572;13.460;2023-12-28T06:40:03;31.43;;;6.40;;
12869;SDS011;6503;48.572;13.460;2023-12-28T06:42:31;14.70;;;5.00;;
12869;SDS011;6503;48.572;13.460;2023-12-28T06:45:01;44.00;;;5.63;;
12869;SDS011;6503;48.572;13.460;2023-12-28T06:47:29;12.30;;;4.53;;
12869;SDS011;6503;48.572;13.460;2023-12-28T06:49:56;62.67;;;7.20;;
12869;SDS011;6503;48.572;13.460;2023-12-28T06:52:24;22.47;;;4.80;;
12869;SDS011;6503;48.572;13.460;2023-12-28T06:54:51;12.83;;;4.83;;
12869;SDS011;6503;48.572;13.460;2023-12-28T06:57:19;12.53;;;4.97;;
12869;SDS011;6503;48.572;13.460;2023-12-28T06:59:46;11.23;;;5.40;;
12869;SDS011;6503;48.572;13.460;2023-12-28T07:02:15;27.00;;;5.87;;
12869;SDS011;6503;48.572;13.460;2023-12-28T07:04:43;79.90;;;8.32;;
12869;SDS011;6503;48.572;13.460;2023-12-28T07:07:10;55.93;;;6.63;;
12869;SDS011;6503;48.572;13.460;2023-12-28T07:09:37;156.27;;;10.53;;
12869;SDS011;6503;48.572;13.460;2023-12-28T07:12:05;54.93;;;7.63;;
12869;SDS011;6503;48.572;13.460;2023-12-28T07:14:33;29.80;;;7.90;;
12869;SDS011;6503;48.572;13.460;2023-12-28T07:17:01;41.87;;;7.43;;
12869;SDS011;6503;48.572;13.460;2023-12-28T07:19:30;51.40;;;7.70;;
12869;SDS011;6503;48.572;13.460;2023-12-28T07:22:03;47.23;;;7.30;;
12869;SDS011;6503;48.572;13.460;2023-12-28T07:24:31;9.47;;;5.27;;
12869;SDS011;6503;48.572;13.460;2023-12-28T07:27:02;35.10;;;6.80;;
12869;SDS011;6503;48.572;13.460;2023-12-28T07:29:31;62.50;;;7.77;;
12869;SDS011;6503;48.572;13.460;2023-12-28T07:31:58;66.30;;;8.65;;
12869;SDS011;6503;48.572;13.460;2023-12-28T07:34:25;14.90;;;6.17;;
12869;SDS011;6503;48.572;13.460;2023-12-28T07:36:54;20.63;;;7.23;;
12869;SDS011;6503;48.572;13.460;2023-12-28T07:39:21;15.82;;;6.07;;
12869;SDS011;6503;48.572;13.460;2023-12-28T07:41:48;42.50;;;6.50;;
12869;SDS011;6503;48.572;13.460;2023-12-28T07:44:16;16.83;;;6.20;;
12869;SDS011;6503;48.572;13.460;2023-12-28T07:46:43;17.60;;;5.67;;
12869;SDS011;6503;48.572;13.460;2023-12-28T07:49:10;13.20;;;5.23;;
12869;SDS011;6503;48.572;13.460;2023-12-28T07:51:38;18.43;;;5.67;;
12869;SDS011;6503;48.572;13.460;2023-12-28T07:54:06;12.27;;;6.07;;
12869;SDS011;6503;48.572;13.460;2023-12-28T07:56:34;19.80;;;6.30;;
12869;SDS011;6503;48.572;13.460;2023-12-28T07:59:02;10.33;;;5.43;;
12869;SDS011;6503;48.572;13.460;2023-12-28T08:04:03;9.20;;;4.93;;
12869;SDS011;6503;48.572;13.460;2023-12-28T08:06:31;12.27;;;4.93;;
12869;SDS011;6503;48.572;13.460;2023-12-28T08:08:58;7.73;;;5.00;;
12869;SDS011;6503;48.572;13.460;2023-12-28T08:11:28;9.60;;;5.33;;
12869;SDS011;6503;48.572;13.460;2023-12-28T08:13:57;8.70;;;4.93;;
12869;SDS011;6503;48.572;13.460;2023-12-28T08:16:24;14.70;;;5.60;;
12869;SDS011;6503;48.572;13.460;2023-12-28T08:18:52;25.83;;;6.53;;
12869;SDS011;6503;48.572;13.460;2023-12-28T08:21:19;14.90;;;5.13;;
12869;SDS011;6503;48.572;13.460;2023-12-28T08:23:47;9.10;;;5.20;;
12869;SDS011;6503;48.572;13.460;2023-12-28T08:26:15;21.00;;;5.77;;
12869;SDS011;6503;48.572;13.460;2023-12-28T08:28:44;24.07;;;6.80;;
12869;SDS011;6503;48.572;13.460;2023-12-28T08:31:12;23.33;;;6.63;;
12869;SDS011;6503;48.572;13.460;2023-12-28T08:33:40;8.40;;;5.30;;
12869;SDS011;6503;48.572;13.460;2023-12-28T08:36:07;7.57;;;5.07;;
12869;SDS011;6503;48.572;13.460;2023-12-28T08:41:03;11.80;;;5.30;;
12869;SDS011;6503;48.572;13.460;2023-12-28T08:43:34;19.03;;;6.90;;
12869;SDS011;6503;48.572;13.460;2023-12-28T08:46:07;14.60;;;7.37;;
12869;SDS011;6503;48.572;13.460;2023-12-28T08:48:34;9.47;;;6.03;;
12869;SDS011;6503;48.572;13.460;2023-12-28T08:51:02;9.77;;;5.67;;
12869;SDS011;6503;48.572;13.460;2023-12-28T08:53:30;6.90;;;5.27;;
12869;SDS011;6503;48.572;13.460;2023-12-28T08:55:57;9.27;;;4.47;;
12869;SDS011;6503;48.572;13.460;2023-12-28T08:58:25;10.80;;;4.57;;
12869;SDS011;6503;48.572;13.460;2023-12-28T09:00:52;6.43;;;4.90;;
12869;SDS011;6503;48.572;13.460;2023-12-28T09:03:23;8.97;;;5.20;;
12869;SDS011;6503;48.572;13.460;2023-12-28T09:05:52;7.07;;;4.87;;
12869;SDS011;6503;48.572;13.460;2023-12-28T09:08:19;8.20;;;5.27;;
12869;SDS011;6503;48.572;13.460;2023-12-28T09:10:46;6.90;;;4.97;;
12869;SDS011;6503;48.572;13.460;2023-12-28T09:13:14;9.73;;;4.80;;
12869;SDS011;6503;48.572;13.460;2023-12-28T09:15:47;7.70;;;5.20;;
12869;SDS011;6503;48.572;13.460;2023-12-28T09:18:16;7.03;;;5.35;;
12869;SDS011;6503;48.572;13.460;2023-12-28T09:20:45;7.20;;;5.20;;
12869;SDS011;6503;48.572;13.460;2023-12-28T09:23:15;7.47;;;5.50;;
12869;SDS011;6503;48.572;13.460;2023-12-28T09:25:46;9.03;;;5.73;;
12869;SDS011;6503;48.572;13.460;2023-12-28T09:28:14;10.40;;;5.17;;
12869;SDS011;6503;48.572;13.460;2023-12-28T09:30:41;9.67;;;4.60;;
12869;SDS011;6503;48.572;13.460;2023-12-28T09:33:08;7.20;;;5.83;;
12869;SDS011;6503;48.572;13.460;2023-12-28T09:35:36;7.13;;;5.23;;
12869;SDS011;6503;48.572;13.460;2023-12-28T09:38:09;15.37;;;9.47;;
12869;SDS011;6503;48.572;13.460;2023-12-28T09:40:36;9.60;;;5.70;;
12869;SDS011;6503;48.572;13.460;2023-12-28T09:43:07;8.33;;;5.27;;
12869;SDS011;6503;48.572;13.460;2023-12-28T09:45:36;6.73;;;5.10;;
12869;SDS011;6503;48.572;13.460;2023-12-28T09:48:04;6.90;;;5.40;;
12869;SDS011;6503;48.572;13.460;2023-12-28T09:50:32;6.50;;;5.13;;
12869;SDS011;6503;48.572;13.460;2023-12-28T09:53:00;8.05;;;5.50;;
12869;SDS011;6503;48.572;13.460;2023-12-28T09:55:29;9.60;;;5.97;;
12869;SDS011;6503;48.572;13.460;2023-12-28T09:57:56;8.50;;;5.93;;
12869;SDS011;6503;48.572;13.460;2023-12-28T10:00:24;7.13;;;5.65;;
12869;SDS011;6503;48.572;13.460;2023-12-28T10:02:52;7.47;;;6.00;;
12869;SDS011;6503;48.572;13.460;2023-12-28T10:05:19;7.70;;;5.83;;
12869;SDS011;6503;48.572;13.460;2023-12-28T10:07:47;9.07;;;6.00;;
12869;SDS011;6503;48.572;13.460;2023-12-28T10:10:15;7.50;;;6.17;;
12869;SDS011;6503;48.572;13.460;2023-12-28T10:12:49;9.93;;;6.70;;
12869;SDS011;6503;48.572;13.460;2023-12-28T10:15:16;8.80;;;6.13;;
12869;SDS011;6503;48.572;13.460;2023-12-28T10:17:46;8.40;;;5.97;;
12869;SDS011;6503;48.572;13.460;2023-12-28T10:20:15;8.43;;;6.18;;
12869;SDS011;6503;48.572;13.460;2023-12-28T10:22:42;9.50;;;6.47;;
12869;SDS011;6503;48.572;13.460;2023-12-28T10:25:11;13.02;;;7.50;;
12869;SDS011;6503;48.572;13.460;2023-12-28T10:27:40;6.93;;;5.47;;
12869;SDS011;6503;48.572;13.460;2023-12-28T10:30:10;7.93;;;5.40;;
12869;SDS011;6503;48.572;13.460;2023-12-28T10:32:39;6.97;;;5.40;;
12869;SDS011;6503;48.572;13.460;2023-12-28T10:35:07;7.67;;;5.50;;
12869;SDS011;6503;48.572;13.460;2023-12-28T10:37:35;6.83;;;5.33;;
12869;SDS011;6503;48.572;13.460;2023-12-28T10:40:03;7.60;;;5.43;;
12869;SDS011;6503;48.572;13.460;2023-12-28T10:42:32;6.75;;;5.13;;
12869;SDS011;6503;48.572;13.460;2023-12-28T10:45:02;6.38;;;5.10;;
12869;SDS011;6503;48.572;13.460;2023-12-28T10:47:33;7.38;;;6.03;;
12869;SDS011;6503;48.572;13.460;2023-12-28T10:50:03;6.68;;;5.35;;
12869;SDS011;6503;48.572;13.460;2023-12-28T10:52:31;7.05;;;5.28;;
12869;SDS011;6503;48.572;13.460;2023-12-28T10:55:03;6.60;;;5.40;;
12869;SDS011;6503;48.572;13.460;2023-12-28T10:57:35;7.38;;;5.40;;
12869;SDS011;6503;48.572;13.460;2023-12-28T11:00:07;10.73;;;5.40;;
12869;SDS011;6503;48.572;13.460;2023-12-28T11:02:44;5.57;;;4.65;;
12869;SDS011;6503;48.572;13.460;2023-12-28T11:05:12;6.45;;;5.03;;
12869;SDS011;6503;48.572;13.460;2023-12-28T11:07:39;9.10;;;6.55;;
12869;SDS011;6503;48.572;13.460;2023-12-28T11:10:08;5.63;;;4.88;;
12869;SDS011;6503;48.572;13.460;2023-12-28T11:12:37;8.57;;;5.60;;
12869;SDS011;6503;48.572;13.460;2023-12-28T11:15:06;10.40;;;5.30;;
12869;SDS011;6503;48.572;13.460;2023-12-28T11:17:41;9.00;;;4.97;;
12869;SDS011;6503;48.572;13.460;2023-12-28T11:20:12;7.97;;;5.30;;
12869;SDS011;6503;48.572;13.460;2023-12-28T11:22:40;7.10;;;5.65;;
12869;SDS011;6503;48.572;13.460;2023-12-28T11:25:15;6.32;;;5.22;;
12869;SDS011;6503;48.572;13.460;2023-12-28T11:27:46;6.38;;;4.85;;
12869;SDS011;6503;48.572;13.460;2023-12-28T11:30:15;7.00;;;5.47;;
12869;SDS011;6503;48.572;13.460;2023-12-28T11:32:46;8.43;;;5.32;;
12869;SDS011;6503;48.572;13.460;2023-12-28T11:35:13;7.80;;;5.07;;
12869;SDS011;6503;48.572;13.460;2023-12-28T11:37:42;7.55;;;5.13;;
12869;SDS011;6503;48.572;13.460;2023-12-28T11:40:12;6.85;;;5.30;;
12869;SDS011;6503;48.572;13.460;2023-12-28T11:45:08;7.65;;;4.95;;
12869;SDS011;6503;48.572;13.460;2023-12-28T11:47:41;6.45;;;4.97;;
12869;SDS011;6503;48.572;13.460;2023-12-28T11:50:11;6.20;;;5.17;;
12869;SDS011;6503;48.572;13.460;2023-12-28T11:52:43;7.93;;;5.03;;
12869;SDS011;6503;48.572;13.460;2023-12-28T11:55:20;10.18;;;4.63;;
12869;SDS011;6503;48.572;13.460;2023-12-28T11:57:50;9.50;;;4.93;;
12869;SDS011;6503;48.572;13.460;2023-12-28T12:00:17;9.38;;;5.38;;
12869;SDS011;6503;48.572;13.460;2023-12-28T12:02:46;6.70;;;5.00;;
12869;SDS011;6503;48.572;13.460;2023-12-28T12:05:17;7.70;;;5.45;;
12869;SDS011;6503;48.572;13.460;2023-12-28T12:07:48;5.30;;;4.80;;
12869;SDS011;6503;48.572;13.460;2023-12-28T12:10:18;6.47;;;5.20;;
12869;SDS011;6503;48.572;13.460;2023-12-28T12:12:51;7.53;;;5.30;;
12869;SDS011;6503;48.572;13.460;2023-12-28T12:15:18;6.82;;;5.30;;
12869;SDS011;6503;48.572;13.460;2023-12-28T12:17:46;9.45;;;4.60;;
12869;SDS011;6503;48.572;13.460;2023-12-28T12:22:44;8.48;;;4.47;;
12869;SDS011;6503;48.572;13.460;2023-12-28T12:25:11;8.18;;;5.13;;
12869;SDS011;6503;48.572;13.460;2023-12-28T12:27:38;5.22;;;4.13;;
12869;SDS011;6503;48.572;13.460;2023-12-28T12:30:07;7.75;;;5.10;;
12869;SDS011;6503;48.572;13.460;2023-12-28T12:35:09;6.45;;;4.55;;
12869;SDS011;6503;48.572;13.460;2023-12-28T12:37:37;6.70;;;4.53;;
12869;SDS011;6503;48.572;13.460;2023-12-28T12:40:09;5.15;;;4.30;;
12869;SDS011;6503;48.572;13.460;2023-12-28T12:42:36;7.15;;;4.40;;
12869;SDS011;6503;48.572;13.460;2023-12-28T12:45:04;6.60;;;4.40;;
12869;SDS011;6503;48.572;13.460;2023-12-28T12:47:32;7.75;;;4.78;;
12869;SDS011;6503;48.572;13.460;2023-12-28T12:50:02;5.88;;;4.03;;
12869;SDS011;6503;48.572;13.460;2023-12-28T12:52:30;9.90;;;4.43;;
12869;SDS011;6503;48.572;13.460;2023-12-28T12:55:10;7.88;;;4.63;;
12869;SDS011;6503;48.572;13.460;2023-12-28T12:57:37;7.15;;;4.53;;
12869;SDS011;6503;48.572;13.460;2023-12-28T13:00:09;8.43;;;5.03;;
12869;SDS011;6503;48.572;13.460;2023-12-28T13:02:36;14.48;;;6.70;;
12869;SDS011;6503;48.572;13.460;2023-12-28T13:05:05;6.97;;;4.90;;
12869;SDS011;6503;48.572;13.460;2023-12-28T13:07:33;6.30;;;4.25;;
12869;SDS011;6503;48.572;13.460;2023-12-28T13:10:00;7.85;;;4.45;;
12869;SDS011;6503;48.572;13.460;2023-12-28T13:12:32;6.35;;;4.30;;
12869;SDS011;6503;48.572;13.460;2023-12-28T13:17:25;8.05;;;4.22;;
12869;SDS011;6503;48.572;13.460;2023-12-28T13:19:59;7.95;;;4.57;;
12869;SDS011;6503;48.572;13.460;2023-12-28T13:22:26;7.40;;;5.40;;
12869;SDS011;6503;48.572;13.460;2023-12-28T13:24:53;5.97;;;4.75;;
12869;SDS011;6503;48.572;13.460;2023-12-28T13:27:21;6.43;;;4.70;;
12869;SDS011;6503;48.572;13.460;2023-12-28T13:29:55;7.68;;;4.82;;
12869;SDS011;6503;48.572;13.460;2023-12-28T13:32:23;7.55;;;4.57;;
12869;SDS011;6503;48.572;13.460;2023-12-28T13:34:50;6.97;;;4.63;;
12869;SDS011;6503;48.572;13.460;2023-12-28T13:37:19;11.80;;;4.80;;
12869;SDS011;6503;48.572;13.460;2023-12-28T13:42:16;9.00;;;5.78;;
12869;SDS011;6503;48.572;13.460;2023-12-28T13:44:45;9.23;;;5.47;;
12869;SDS011;6503;48.572;13.460;2023-12-28T13:47:16;8.10;;;5.40;;
12869;SDS011;6503;48.572;13.460;2023-12-28T13:49:44;9.68;;;6.25;;
12869;SDS011;6503;48.572;13.460;2023-12-28T13:52:12;10.23;;;6.10;;
12869;SDS011;6503;48.572;13.460;2023-12-28T13:54:40;11.73;;;8.23;;
12869;SDS011;6503;48.572;13.460;2023-12-28T13:57:08;8.95;;;6.22;;
12869;SDS011;6503;48.572;13.460;2023-12-28T13:59:36;7.10;;;5.07;;
12869;SDS011;6503;48.572;13.460;2023-12-28T14:02:04;7.38;;;4.93;;
12869;SDS011;6503;48.572;13.460;2023-12-28T14:04:34;9.02;;;4.90;;
12869;SDS011;6503;48.572;13.460;2023-12-28T14:07:01;6.38;;;4.57;;
12869;SDS011;6503;48.572;13.460;2023-12-28T14:09:36;5.55;;;4.25;;
12869;SDS011;6503;48.572;13.460;2023-12-28T14:12:06;6.65;;;4.53;;
12869;SDS011;6503;48.572;13.460;2023-12-28T14:14:40;6.50;;;4.55;;
12869;SDS011;6503;48.572;13.460;2023-12-28T14:17:08;5.22;;;3.95;;
12869;SDS011;6503;48.572;13.460;2023-12-28T14:19:37;5.72;;;4.80;;
12869;SDS011;6503;48.572;13.460;2023-12-28T14:22:06;7.35;;;5.10;;
12869;SDS011;6503;48.572;13.460;2023-12-28T14:24:36;6.85;;;4.75;;
12869;SDS011;6503;48.572;13.460;2023-12-28T14:27:05;7.40;;;5.35;;
12869;SDS011;6503;48.572;13.460;2023-12-28T14:29:33;8.18;;;5.43;;
12869;SDS011;6503;48.572;13.460;2023-12-28T14:34:28;6.68;;;4.30;;
12869;SDS011;6503;48.572;13.460;2023-12-28T14:36:59;7.22;;;4.88;;
12869;SDS011;6503;48.572;13.460;2023-12-28T14:41:53;8.02;;;4.90;;
12869;SDS011;6503;48.572;13.460;2023-12-28T14:44:23;6.20;;;4.40;;
12869;SDS011;6503;48.572;13.460;2023-12-28T14:46:54;5.85;;;4.10;;
12869;SDS011;6503;48.572;13.460;2023-12-28T14:49:23;7.30;;;5.00;;
12869;SDS011;6503;48.572;13.460;2023-12-28T14:51:51;6.05;;;4.72;;
12869;SDS011;6503;48.572;13.460;2023-12-28T14:54:22;11.65;;;6.40;;
12869;SDS011;6503;48.572;13.460;2023-12-28T14:56:53;15.13;;;9.43;;
12869;SDS011;6503;48.572;13.460;2023-12-28T14:59:21;19.02;;;11.70;;
12869;SDS011;6503;48.572;13.460;2023-12-28T15:01:51;15.57;;;9.63;;
12869;SDS011;6503;48.572;13.460;2023-12-28T15:06:51;10.82;;;6.20;;
12869;SDS011;6503;48.572;13.460;2023-12-28T15:09:23;7.55;;;5.68;;
12869;SDS011;6503;48.572;13.460;2023-12-28T15:11:52;5.57;;;4.55;;
12869;SDS011;6503;48.572;13.460;2023-12-28T15:14:24;8.38;;;5.13;;
12869;SDS011;6503;48.572;13.460;2023-12-28T15:16:56;9.02;;;5.10;;
12869;SDS011;6503;48.572;13.460;2023-12-28T15:19:25;7.82;;;5.43;;